LSGGLESO

Guest
Details From LSGG - Geneva
To LESO - San Sebastian
Flight Number -
Tags Generated
Created
Modified
Stats Distance 378 nm / 701 km
Max Altitude 0 ft / 0 m
Waypoints 3
Social Downloads 3
Likes 0
Share VATSIM

Download

Looking for another format? Having issues loading an existing format? Contact us
Advertisement - Login to hide

Notes

Generated

Route

LSGG BTZ LESO

ID Type Via Altitude Latitude Longitude Leg Dist Tot Dist Heading (true) Name
O LSGG APT - 0 ft / 0 m 46.23482˚ 6.09953˚ - 0 nm - -
BTZ VOR - 0 ft / 0 m 43.46664˚ -1.51028˚ 363 nm 363 nm 246° / 240° BIARRITZ BAYONNE ANGLET VOR-DM
O LESO APT - 0 ft / 0 m 43.35035˚ -1.79740˚ 14 nm 378 nm 241° / 241° -

Altitude Profile

Advertisement - Login to hide

Weather


0- 5 10 15 20 25 30 35+ Temperature / ° C

Clouds and Precipitation
Forecast for 2018-05-26 12:00 UTC. Updated 3 hours ago

Ground ~20,000 ft ~40,000 ft Winds

LSGG

Details ICAO LSGG (GVA)
Name Geneva
Region Switzerland
Timezone Europe/Zurich (UTC+2.0)
Stats Elevation 1,410 ft / 430 m (AMSL)
Location 46.237755° 6.106173°
Runways 2
Magnetic Variation 1.791° E

METAR

LSGG 261350Z 04008KT 9999 FEW050 SCT130 BKN250 25/15 Q1019 NOSIG

Decode

TAF

TAF TAF LSGG 261125Z 2612/2718 VRB03KT 9999 FEW040 BKN080 TX27/2615Z TN15/2705Z TX26/2715Z PROB30 TEMPO 2615/2619 VRB15G25KT 4900 TSRA SCT035CB PROB40 TEMPO 2710/2717 VRB15G25KT 4500 TSRA SCT035CB BKN045

Decode

Departure Runways

ID Width Length Bearing (true) Bearing (mag) Surface Threshold Offset Overrun Length
05 180 ft / 55 m 12,796 ft / 3,900 m 45.43° 43.64° Concrete 1,079 ft / 329 m 66 ft / 20 m
05L 98 ft / 30 m 2,701 ft / 823 m 45.44° 43.65° Grass 610 ft / 186 m 0 ft / 0 m
23 180 ft / 55 m 12,796 ft / 3,900 m 225.45° 223.66° Concrete 0 ft / 0 m 66 ft / 20 m
23R 98 ft / 30 m 2,701 ft / 823 m 225.45° 223.66° Grass 997 ft / 304 m 0 ft / 0 m

LESO

Details ICAO LESO (EAS)
Name San_Sebastian
Region Spain
Timezone Europe/Madrid (UTC+2.0)
Stats Elevation 14 ft / 4 m (AMSL)
Location 43.356520° -1.790611°
Runways 1
Magnetic Variation 0.242° W

METAR

LESO 261400Z 03003KT 320V110 9999 FEW055 24/16 Q1011

Decode

TAF

TAF LESO 261100Z 2612/2712 VRB06KT 9999 SCT020 BKN035 TX23/2615Z TN16/2705Z TEMPO 2612/2622 SHRA SCT030TCU PROB40 TEMPO 2612/2622 3000 TSRA BKN010 BKN030CB PROB40 TEMPO 2703/2709 4000 BR BKN010

Decode

Destination Runways

ID Width Length Bearing (true) Bearing (mag) Surface Threshold Offset Overrun Length
04 148 ft / 45 m 5,762 ft / 1,756 m 38.68° 38.92° Asphalt 0 ft / 0 m 0 ft / 0 m
22 148 ft / 45 m 5,762 ft / 1,756 m 218.69° 218.93° Asphalt 0 ft / 0 m 0 ft / 0 m